sensor_id;sensor_type;location;lat;lon;timestamp;temperature;humidity
19037;DHT22;9651;49.138;8.900;2022-10-16T00:03:44;16.10;99.90
19037;DHT22;9651;49.138;8.900;2022-10-16T00:07:47;16.10;99.90
19037;DHT22;9651;49.138;8.900;2022-10-16T00:11:49;16.00;99.90
19037;DHT22;9651;49.138;8.900;2022-10-16T00:15:54;16.00;99.90
19037;DHT22;9651;49.138;8.900;2022-10-16T00:19:56;15.90;99.90
19037;DHT22;9651;49.138;8.900;2022-10-16T00:24:01;15.90;99.90
19037;DHT22;9651;49.138;8.900;2022-10-16T00:28:03;15.90;99.90
19037;DHT22;9651;49.138;8.900;2022-10-16T00:32:05;15.90;99.90
19037;DHT22;9651;49.138;8.900;2022-10-16T00:36:10;15.90;99.90
19037;DHT22;9651;49.138;8.900;2022-10-16T00:40:13;15.90;99.90
19037;DHT22;9651;49.138;8.900;2022-10-16T00:44:41;15.90;99.90
19037;DHT22;9651;49.138;8.900;2022-10-16T00:48:48;15.90;99.90
19037;DHT22;9651;49.138;8.900;2022-10-16T00:52:52;15.90;99.90
19037;DHT22;9651;49.138;8.900;2022-10-16T00:56:58;16.00;99.90
19037;DHT22;9651;49.138;8.900;2022-10-16T01:01:01;16.00;99.90
19037;DHT22;9651;49.138;8.900;2022-10-16T01:05:04;16.00;99.90
19037;DHT22;9651;49.138;8.900;2022-10-16T01:09:13;16.00;99.90
19037;DHT22;9651;49.138;8.900;2022-10-16T01:13:23;16.00;99.90
19037;DHT22;9651;49.138;8.900;2022-10-16T01:17:30;16.00;99.90
19037;DHT22;9651;49.138;8.900;2022-10-16T01:21:37;16.10;99.90
19037;DHT22;9651;49.138;8.900;2022-10-16T01:25:54;16.10;99.90
19037;DHT22;9651;49.138;8.900;2022-10-16T01:30:03;16.10;99.90
19037;DHT22;9651;49.138;8.900;2022-10-16T01:34:09;16.10;99.90
19037;DHT22;9651;49.138;8.900;2022-10-16T01:38:14;16.10;99.90
19037;DHT22;9651;49.138;8.900;2022-10-16T01:42:21;16.10;99.90
19037;DHT22;9651;49.138;8.900;2022-10-16T01:46:26;16.10;99.90
19037;DHT22;9651;49.138;8.900;2022-10-16T01:50:29;16.20;99.90
19037;DHT22;9651;49.138;8.900;2022-10-16T01:54:33;16.20;99.90
19037;DHT22;9651;49.138;8.900;2022-10-16T01:58:39;16.20;99.90
19037;DHT22;9651;49.138;8.900;2022-10-16T02:02:48;16.20;99.90
19037;DHT22;9651;49.138;8.900;2022-10-16T02:06:51;16.20;99.90
19037;DHT22;9651;49.138;8.900;2022-10-16T02:10:54;16.20;99.90
19037;DHT22;9651;49.138;8.900;2022-10-16T02:14:58;16.10;99.90
19037;DHT22;9651;49.138;8.900;2022-10-16T02:19:02;16.20;99.90
19037;DHT22;9651;49.138;8.900;2022-10-16T02:23:04;16.20;99.90
19037;DHT22;9651;49.138;8.900;2022-10-16T02:27:13;16.20;99.90
19037;DHT22;9651;49.138;8.900;2022-10-16T02:31:24;16.20;99.90
19037;DHT22;9651;49.138;8.900;2022-10-16T02:35:30;16.20;99.90
19037;DHT22;9651;49.138;8.900;2022-10-16T02:39:33;16.20;99.90
19037;DHT22;9651;49.138;8.900;2022-10-16T02:43:36;16.20;99.90
19037;DHT22;9651;49.138;8.900;2022-10-16T02:47:37;16.20;99.90
19037;DHT22;9651;49.138;8.900;2022-10-16T02:51:41;16.20;99.90
19037;DHT22;9651;49.138;8.900;2022-10-16T02:55:43;16.10;99.90
19037;DHT22;9651;49.138;8.900;2022-10-16T02:59:45;16.20;99.90
19037;DHT22;9651;49.138;8.900;2022-10-16T03:03:47;16.20;99.90
19037;DHT22;9651;49.138;8.900;2022-10-16T03:07:50;16.20;99.90
19037;DHT22;9651;49.138;8.900;2022-10-16T03:11:53;16.10;99.90
19037;DHT22;9651;49.138;8.900;2022-10-16T03:15:55;16.10;99.90
19037;DHT22;9651;49.138;8.900;2022-10-16T03:19:56;16.10;99.90
19037;DHT22;9651;49.138;8.900;2022-10-16T03:24:00;16.10;99.90
19037;DHT22;9651;49.138;8.900;2022-10-16T03:28:02;16.10;99.90
19037;DHT22;9651;49.138;8.900;2022-10-16T03:32:04;16.00;99.90
19037;DHT22;9651;49.138;8.900;2022-10-16T03:36:06;16.00;99.90
19037;DHT22;9651;49.138;8.900;2022-10-16T03:40:10;15.90;99.90
19037;DHT22;9651;49.138;8.900;2022-10-16T03:44:12;16.00;99.90
19037;DHT22;9651;49.138;8.900;2022-10-16T03:48:14;16.00;99.90
19037;DHT22;9651;49.138;8.900;2022-10-16T03:52:16;16.00;99.90
19037;DHT22;9651;49.138;8.900;2022-10-16T03:56:19;16.00;99.90
19037;DHT22;9651;49.138;8.900;2022-10-16T04:00:21;16.00;99.90
19037;DHT22;9651;49.138;8.900;2022-10-16T04:04:23;16.00;99.90
19037;DHT22;9651;49.138;8.900;2022-10-16T04:08:25;16.00;99.90
19037;DHT22;9651;49.138;8.900;2022-10-16T04:12:29;15.90;99.90
19037;DHT22;9651;49.138;8.900;2022-10-16T04:16:30;15.90;99.90
19037;DHT22;9651;49.138;8.900;2022-10-16T04:20:33;15.90;99.90
19037;DHT22;9651;49.138;8.900;2022-10-16T04:24:35;15.90;99.90
19037;DHT22;9651;49.138;8.900;2022-10-16T04:28:38;15.90;99.90
19037;DHT22;9651;49.138;8.900;2022-10-16T04:32:40;16.00;99.90
19037;DHT22;9651;49.138;8.900;2022-10-16T04:36:42;15.90;99.90
19037;DHT22;9651;49.138;8.900;2022-10-16T04:40:44;15.90;99.90
19037;DHT22;9651;49.138;8.900;2022-10-16T04:44:47;15.90;99.90
19037;DHT22;9651;49.138;8.900;2022-10-16T04:48:49;15.90;99.90
19037;DHT22;9651;49.138;8.900;2022-10-16T04:52:51;15.90;99.90
19037;DHT22;9651;49.138;8.900;2022-10-16T04:56:53;15.90;99.90
19037;DHT22;9651;49.138;8.900;2022-10-16T05:00:56;15.90;99.90
19037;DHT22;9651;49.138;8.900;2022-10-16T05:04:58;15.90;99.90
19037;DHT22;9651;49.138;8.900;2022-10-16T05:08:59;15.90;99.90
19037;DHT22;9651;49.138;8.900;2022-10-16T05:13:01;15.90;99.90
19037;DHT22;9651;49.138;8.900;2022-10-16T05:17:05;15.90;99.90
19037;DHT22;9651;49.138;8.900;2022-10-16T05:21:07;15.90;99.90
19037;DHT22;9651;49.138;8.900;2022-10-16T05:25:10;15.90;99.90
19037;DHT22;9651;49.138;8.900;2022-10-16T05:29:12;15.90;99.90
19037;DHT22;9651;49.138;8.900;2022-10-16T05:33:15;15.80;99.90
19037;DHT22;9651;49.138;8.900;2022-10-16T05:37:17;15.80;99.90
19037;DHT22;9651;49.138;8.900;2022-10-16T05:41:19;15.80;99.90
19037;DHT22;9651;49.138;8.900;2022-10-16T05:45:22;15.80;99.90
19037;DHT22;9651;49.138;8.900;2022-10-16T05:49:25;15.70;99.90
19037;DHT22;9651;49.138;8.900;2022-10-16T05:53:28;15.80;99.90
19037;DHT22;9651;49.138;8.900;2022-10-16T05:57:30;15.80;99.90
19037;DHT22;9651;49.138;8.900;2022-10-16T06:01:32;15.80;99.90
19037;DHT22;9651;49.138;8.900;2022-10-16T06:05:35;15.80;99.90
19037;DHT22;9651;49.138;8.900;2022-10-16T06:09:37;15.70;99.90
19037;DHT22;9651;49.138;8.900;2022-10-16T06:13:39;15.70;99.90
19037;DHT22;9651;49.138;8.900;2022-10-16T06:17:43;15.70;99.90
19037;DHT22;9651;49.138;8.900;2022-10-16T06:21:46;15.80;99.90
19037;DHT22;9651;49.138;8.900;2022-10-16T06:25:48;15.80;99.90
19037;DHT22;9651;49.138;8.900;2022-10-16T06:29:50;15.90;99.90
19037;DHT22;9651;49.138;8.900;2022-10-16T06:33:52;15.90;99.90
19037;DHT22;9651;49.138;8.900;2022-10-16T06:37:55;15.90;99.90
19037;DHT22;9651;49.138;8.900;2022-10-16T06:41:57;16.00;99.90
19037;DHT22;9651;49.138;8.900;2022-10-16T06:46:05;16.00;99.90
19037;DHT22;9651;49.138;8.900;2022-10-16T06:50:08;16.00;99.90
19037;DHT22;9651;49.138;8.900;2022-10-16T06:54:11;16.00;99.90
19037;DHT22;9651;49.138;8.900;2022-10-16T06:58:13;16.10;99.90
19037;DHT22;9651;49.138;8.900;2022-10-16T07:02:15;16.10;99.90
19037;DHT22;9651;49.138;8.900;2022-10-16T07:06:19;16.10;99.90
19037;DHT22;9651;49.138;8.900;2022-10-16T07:10:22;16.20;99.90
19037;DHT22;9651;49.138;8.900;2022-10-16T07:14:25;16.20;99.90
19037;DHT22;9651;49.138;8.900;2022-10-16T07:18:27;16.30;99.90
19037;DHT22;9651;49.138;8.900;2022-10-16T07:22:29;16.30;99.90
19037;DHT22;9651;49.138;8.900;2022-10-16T07:26:35;16.40;99.90
19037;DHT22;9651;49.138;8.900;2022-10-16T07:30:39;16.60;99.90
19037;DHT22;9651;49.138;8.900;2022-10-16T07:34:41;16.90;99.90
19037;DHT22;9651;49.138;8.900;2022-10-16T07:38:44;17.20;99.90
19037;DHT22;9651;49.138;8.900;2022-10-16T07:42:47;17.50;99.90
19037;DHT22;9651;49.138;8.900;2022-10-16T07:46:49;17.80;99.90
19037;DHT22;9651;49.138;8.900;2022-10-16T07:50:51;17.90;99.90
19037;DHT22;9651;49.138;8.900;2022-10-16T07:54:53;18.00;99.90
19037;DHT22;9651;49.138;8.900;2022-10-16T07:58:56;18.20;99.90
19037;DHT22;9651;49.138;8.900;2022-10-16T08:02:58;18.50;99.90
19037;DHT22;9651;49.138;8.900;2022-10-16T08:07:00;18.70;99.90
19037;DHT22;9651;49.138;8.900;2022-10-16T08:11:02;19.00;99.90
19037;DHT22;9651;49.138;8.900;2022-10-16T08:15:07;19.40;99.90
19037;DHT22;9651;49.138;8.900;2022-10-16T08:19:09;19.70;99.90
19037;DHT22;9651;49.138;8.900;2022-10-16T08:23:11;19.80;99.90
19037;DHT22;9651;49.138;8.900;2022-10-16T08:27:13;20.00;99.90
19037;DHT22;9651;49.138;8.900;2022-10-16T08:31:16;20.30;99.90
19037;DHT22;9651;49.138;8.900;2022-10-16T08:35:19;20.70;99.90
19037;DHT22;9651;49.138;8.900;2022-10-16T08:39:20;20.90;99.90
19037;DHT22;9651;49.138;8.900;2022-10-16T08:43:40;21.30;99.90
19037;DHT22;9651;49.138;8.900;2022-10-16T08:47:49;21.50;99.90
19037;DHT22;9651;49.138;8.900;2022-10-16T08:51:53;21.80;99.90
19037;DHT22;9651;49.138;8.900;2022-10-16T08:55:57;22.20;99.90
19037;DHT22;9651;49.138;8.900;2022-10-16T09:00:05;22.20;99.90
19037;DHT22;9651;49.138;8.900;2022-10-16T09:08:53;22.50;99.90
19037;DHT22;9651;49.138;8.900;2022-10-16T09:13:02;22.90;99.90
19037;DHT22;9651;49.138;8.900;2022-10-16T09:17:22;23.50;99.90
19037;DHT22;9651;49.138;8.900;2022-10-16T09:21:28;23.90;99.90
19037;DHT22;9651;49.138;8.900;2022-10-16T09:25:31;24.30;99.90
19037;DHT22;9651;49.138;8.900;2022-10-16T09:29:33;24.80;99.90
19037;DHT22;9651;49.138;8.900;2022-10-16T09:33:37;25.80;99.90
19037;DHT22;9651;49.138;8.900;2022-10-16T09:37:43;26.40;99.90
19037;DHT22;9651;49.138;8.900;2022-10-16T09:41:45;26.70;99.90
19037;DHT22;9651;49.138;8.900;2022-10-16T09:45:55;27.10;99.90
19037;DHT22;9651;49.138;8.900;2022-10-16T09:49:58;26.90;99.90
19037;DHT22;9651;49.138;8.900;2022-10-16T09:54:14;26.40;99.90
19037;DHT22;9651;49.138;8.900;2022-10-16T09:58:16;25.90;99.90
19037;DHT22;9651;49.138;8.900;2022-10-16T10:02:20;25.70;99.90
19037;DHT22;9651;49.138;8.900;2022-10-16T10:06:27;26.60;99.90
19037;DHT22;9651;49.138;8.900;2022-10-16T10:10:34;28.10;99.90
19037;DHT22;9651;49.138;8.900;2022-10-16T10:14:40;29.40;99.90
19037;DHT22;9651;49.138;8.900;2022-10-16T10:18:44;30.90;99.90
19037;DHT22;9651;49.138;8.900;2022-10-16T10:22:48;31.70;99.90
19037;DHT22;9651;49.138;8.900;2022-10-16T10:26:56;32.20;99.90
19037;DHT22;9651;49.138;8.900;2022-10-16T10:31:04;32.90;99.90
19037;DHT22;9651;49.138;8.900;2022-10-16T10:35:15;33.20;99.90
19037;DHT22;9651;49.138;8.900;2022-10-16T10:39:24;33.70;99.70
19037;DHT22;9651;49.138;8.900;2022-10-16T10:43:43;33.80;98.70
19037;DHT22;9651;49.138;8.900;2022-10-16T10:47:57;33.40;98.30
19037;DHT22;9651;49.138;8.900;2022-10-16T10:52:12;32.90;98.20
19037;DHT22;9651;49.138;8.900;2022-10-16T10:56:25;33.10;97.80
19037;DHT22;9651;49.138;8.900;2022-10-16T11:00:42;33.80;95.80
19037;DHT22;9651;49.138;8.900;2022-10-16T11:05:13;33.40;96.00
19037;DHT22;9651;49.138;8.900;2022-10-16T11:09:19;34.00;95.30
19037;DHT22;9651;49.138;8.900;2022-10-16T11:13:30;34.10;94.30
19037;DHT22;9651;49.138;8.900;2022-10-16T11:17:39;34.70;93.60
19037;DHT22;9651;49.138;8.900;2022-10-16T11:21:47;35.00;92.10
19037;DHT22;9651;49.138;8.900;2022-10-16T11:25:52;34.80;91.50
19037;DHT22;9651;49.138;8.900;2022-10-16T11:30:01;33.90;92.60
19037;DHT22;9651;49.138;8.900;2022-10-16T11:34:09;34.20;92.40
19037;DHT22;9651;49.138;8.900;2022-10-16T11:38:27;34.00;91.60
19037;DHT22;9651;49.138;8.900;2022-10-16T11:42:36;31.90;93.00
19037;DHT22;9651;49.138;8.900;2022-10-16T11:46:46;30.60;95.50
19037;DHT22;9651;49.138;8.900;2022-10-16T11:50:53;29.50;96.60
19037;DHT22;9651;49.138;8.900;2022-10-16T11:54:59;29.00;96.70
19037;DHT22;9651;49.138;8.900;2022-10-16T11:59:07;29.00;98.20
19037;DHT22;9651;49.138;8.900;2022-10-16T12:03:17;29.20;98.00
19037;DHT22;9651;49.138;8.900;2022-10-16T12:07:31;28.90;98.10
19037;DHT22;9651;49.138;8.900;2022-10-16T12:11:38;28.70;98.30
19037;DHT22;9651;49.138;8.900;2022-10-16T12:15:40;28.30;98.80
19037;DHT22;9651;49.138;8.900;2022-10-16T12:19:42;28.30;99.20
19037;DHT22;9651;49.138;8.900;2022-10-16T12:23:50;28.30;99.50
19037;DHT22;9651;49.138;8.900;2022-10-16T12:28:05;28.10;99.80
19037;DHT22;9651;49.138;8.900;2022-10-16T12:32:29;28.10;99.90
19037;DHT22;9651;49.138;8.900;2022-10-16T12:36:33;28.10;99.80
19037;DHT22;9651;49.138;8.900;2022-10-16T12:40:38;28.00;99.50
19037;DHT22;9651;49.138;8.900;2022-10-16T12:44:40;27.80;98.80
19037;DHT22;9651;49.138;8.900;2022-10-16T12:48:43;27.40;99.70
19037;DHT22;9651;49.138;8.900;2022-10-16T12:52:46;26.90;99.90
19037;DHT22;9651;49.138;8.900;2022-10-16T12:57:08;26.60;99.90
19037;DHT22;9651;49.138;8.900;2022-10-16T13:01:22;26.20;99.90
19037;DHT22;9651;49.138;8.900;2022-10-16T13:05:36;26.30;99.90
19037;DHT22;9651;49.138;8.900;2022-10-16T13:09:57;25.90;99.90
19037;DHT22;9651;49.138;8.900;2022-10-16T13:14:33;25.50;99.90
19037;DHT22;9651;49.138;8.900;2022-10-16T13:18:44;25.10;99.90
19037;DHT22;9651;49.138;8.900;2022-10-16T13:22:56;25.10;99.90
19037;DHT22;9651;49.138;8.900;2022-10-16T13:27:05;24.90;99.90
19037;DHT22;9651;49.138;8.900;2022-10-16T13:31:16;24.70;99.90
19037;DHT22;9651;49.138;8.900;2022-10-16T13:35:21;24.60;99.90
19037;DHT22;9651;49.138;8.900;2022-10-16T13:39:25;24.40;99.90
19037;DHT22;9651;49.138;8.900;2022-10-16T13:43:29;24.10;99.90
19037;DHT22;9651;49.138;8.900;2022-10-16T13:47:39;23.70;99.90
19037;DHT22;9651;49.138;8.900;2022-10-16T13:51:53;23.50;99.90
19037;DHT22;9651;49.138;8.900;2022-10-16T13:55:56;23.40;99.90
19037;DHT22;9651;49.138;8.900;2022-10-16T13:59:58;23.30;99.90
19037;DHT22;9651;49.138;8.900;2022-10-16T14:04:04;23.30;99.90
19037;DHT22;9651;49.138;8.900;2022-10-16T14:08:11;23.50;99.90
19037;DHT22;9651;49.138;8.900;2022-10-16T14:12:13;23.60;99.90
19037;DHT22;9651;49.138;8.900;2022-10-16T14:16:18;23.50;99.90
19037;DHT22;9651;49.138;8.900;2022-10-16T14:20:25;23.40;99.90
19037;DHT22;9651;49.138;8.900;2022-10-16T14:24:32;23.20;99.90
19037;DHT22;9651;49.138;8.900;2022-10-16T14:28:35;23.20;99.90
19037;DHT22;9651;49.138;8.900;2022-10-16T14:32:40;23.10;99.90
19037;DHT22;9651;49.138;8.900;2022-10-16T14:36:43;23.10;99.90
19037;DHT22;9651;49.138;8.900;2022-10-16T14:40:47;23.00;99.90
19037;DHT22;9651;49.138;8.900;2022-10-16T14:44:50;22.90;99.90
19037;DHT22;9651;49.138;8.900;2022-10-16T14:48:59;22.80;99.90
19037;DHT22;9651;49.138;8.900;2022-10-16T14:53:08;22.70;99.90
19037;DHT22;9651;49.138;8.900;2022-10-16T14:57:18;22.60;99.90
19037;DHT22;9651;49.138;8.900;2022-10-16T15:01:22;22.60;99.90
19037;DHT22;9651;49.138;8.900;2022-10-16T15:05:25;22.50;99.90
19037;DHT22;9651;49.138;8.900;2022-10-16T15:09:29;22.60;99.90
19037;DHT22;9651;49.138;8.900;2022-10-16T15:13:31;22.70;99.90
19037;DHT22;9651;49.138;8.900;2022-10-16T15:17:35;22.60;99.90
19037;DHT22;9651;49.138;8.900;2022-10-16T15:21:36;22.60;99.90
19037;DHT22;9651;49.138;8.900;2022-10-16T15:25:44;22.60;99.90
19037;DHT22;9651;49.138;8.900;2022-10-16T15:29:50;22.50;99.90
19037;DHT22;9651;49.138;8.900;2022-10-16T15:33:53;22.50;99.90
19037;DHT22;9651;49.138;8.900;2022-10-16T15:37:58;22.40;99.90
19037;DHT22;9651;49.138;8.900;2022-10-16T15:42:02;22.30;99.90
19037;DHT22;9651;49.138;8.900;2022-10-16T15:46:05;22.20;99.90
19037;DHT22;9651;49.138;8.900;2022-10-16T15:50:10;22.10;99.90
19037;DHT22;9651;49.138;8.900;2022-10-16T15:54:16;22.00;99.90
19037;DHT22;9651;49.138;8.900;2022-10-16T15:58:26;21.80;99.90
19037;DHT22;9651;49.138;8.900;2022-10-16T16:02:32;21.40;99.90
19037;DHT22;9651;49.138;8.900;2022-10-16T16:06:34;21.10;99.90
19037;DHT22;9651;49.138;8.900;2022-10-16T16:10:38;20.90;99.90
19037;DHT22;9651;49.138;8.900;2022-10-16T16:14:41;20.70;99.90
19037;DHT22;9651;49.138;8.900;2022-10-16T16:18:44;20.50;99.90
19037;DHT22;9651;49.138;8.900;2022-10-16T16:22:46;20.40;99.90
19037;DHT22;9651;49.138;8.900;2022-10-16T16:26:48;20.20;99.90
19037;DHT22;9651;49.138;8.900;2022-10-16T16:30:52;20.10;99.90
19037;DHT22;9651;49.138;8.900;2022-10-16T16:34:54;19.90;99.90
19037;DHT22;9651;49.138;8.900;2022-10-16T16:38:58;19.60;99.90
19037;DHT22;9651;49.138;8.900;2022-10-16T16:43:01;19.50;99.90
19037;DHT22;9651;49.138;8.900;2022-10-16T16:47:05;19.30;99.90
19037;DHT22;9651;49.138;8.900;2022-10-16T16:51:13;19.10;99.90
19037;DHT22;9651;49.138;8.900;2022-10-16T16:55:18;19.00;99.90
19037;DHT22;9651;49.138;8.900;2022-10-16T16:59:21;18.90;99.90
19037;DHT22;9651;49.138;8.900;2022-10-16T17:03:24;18.80;99.90
19037;DHT22;9651;49.138;8.900;2022-10-16T17:07:26;18.70;99.90
19037;DHT22;9651;49.138;8.900;2022-10-16T17:11:33;18.60;99.90
19037;DHT22;9651;49.138;8.900;2022-10-16T17:15:35;18.50;99.90
19037;DHT22;9651;49.138;8.900;2022-10-16T17:19:39;18.40;99.90
19037;DHT22;9651;49.138;8.900;2022-10-16T17:23:41;18.30;99.90
19037;DHT22;9651;49.138;8.900;2022-10-16T17:27:43;18.20;99.90
19037;DHT22;9651;49.138;8.900;2022-10-16T17:31:45;18.00;99.90
19037;DHT22;9651;49.138;8.900;2022-10-16T17:35:50;17.90;99.90
19037;DHT22;9651;49.138;8.900;2022-10-16T17:39:52;17.90;99.90
19037;DHT22;9651;49.138;8.900;2022-10-16T17:43:54;17.80;99.90
19037;DHT22;9651;49.138;8.900;2022-10-16T17:47:58;17.70;99.90
19037;DHT22;9651;49.138;8.900;2022-10-16T17:52:01;17.60;99.90
19037;DHT22;9651;49.138;8.900;2022-10-16T17:56:04;17.50;99.90
19037;DHT22;9651;49.138;8.900;2022-10-16T18:00:07;17.50;99.90
19037;DHT22;9651;49.138;8.900;2022-10-16T18:04:11;17.40;99.90
19037;DHT22;9651;49.138;8.900;2022-10-16T18:08:14;17.20;99.90
19037;DHT22;9651;49.138;8.900;2022-10-16T18:12:16;17.20;99.90
19037;DHT22;9651;49.138;8.900;2022-10-16T18:16:18;17.10;99.90
19037;DHT22;9651;49.138;8.900;2022-10-16T18:20:21;17.10;99.90
19037;DHT22;9651;49.138;8.900;2022-10-16T18:24:25;17.00;99.90
19037;DHT22;9651;49.138;8.900;2022-10-16T18:28:27;17.00;99.90
19037;DHT22;9651;49.138;8.900;2022-10-16T18:32:29;17.00;99.90
19037;DHT22;9651;49.138;8.900;2022-10-16T18:36:33;16.90;99.90
19037;DHT22;9651;49.138;8.900;2022-10-16T18:40:36;16.90;99.90
19037;DHT22;9651;49.138;8.900;2022-10-16T18:44:38;16.90;99.90
19037;DHT22;9651;49.138;8.900;2022-10-16T18:48:40;16.80;99.90
19037;DHT22;9651;49.138;8.900;2022-10-16T18:52:46;16.70;99.90
19037;DHT22;9651;49.138;8.900;2022-10-16T18:56:51;16.60;99.90
19037;DHT22;9651;49.138;8.900;2022-10-16T19:00:53;16.60;99.90
19037;DHT22;9651;49.138;8.900;2022-10-16T19:04:55;16.60;99.90
19037;DHT22;9651;49.138;8.900;2022-10-16T19:08:57;16.50;99.90
19037;DHT22;9651;49.138;8.900;2022-10-16T19:13:00;16.50;99.90
19037;DHT22;9651;49.138;8.900;2022-10-16T19:17:03;16.50;99.90
19037;DHT22;9651;49.138;8.900;2022-10-16T19:21:06;16.40;99.90
19037;DHT22;9651;49.138;8.900;2022-10-16T19:25:08;16.40;99.90
19037;DHT22;9651;49.138;8.900;2022-10-16T19:29:12;16.40;99.90
19037;DHT22;9651;49.138;8.900;2022-10-16T19:33:14;16.30;99.90
19037;DHT22;9651;49.138;8.900;2022-10-16T19:37:16;16.30;99.90
19037;DHT22;9651;49.138;8.900;2022-10-16T19:41:18;16.30;99.90
19037;DHT22;9651;49.138;8.900;2022-10-16T19:45:22;16.30;99.90
19037;DHT22;9651;49.138;8.900;2022-10-16T19:49:24;16.30;99.90
19037;DHT22;9651;49.138;8.900;2022-10-16T19:53:29;16.20;99.90
19037;DHT22;9651;49.138;8.900;2022-10-16T19:57:35;16.20;99.90
19037;DHT22;9651;49.138;8.900;2022-10-16T20:01:47;16.20;99.90
19037;DHT22;9651;49.138;8.900;2022-10-16T20:05:51;16.20;99.90
19037;DHT22;9651;49.138;8.900;2022-10-16T20:09:53;16.10;99.90
19037;DHT22;9651;49.138;8.900;2022-10-16T20:13:55;16.10;99.90
19037;DHT22;9651;49.138;8.900;2022-10-16T20:17:59;16.00;99.90
19037;DHT22;9651;49.138;8.900;2022-10-16T20:22:01;16.00;99.90
19037;DHT22;9651;49.138;8.900;2022-10-16T20:26:03;16.00;99.90
19037;DHT22;9651;49.138;8.900;2022-10-16T20:30:06;15.90;99.90
19037;DHT22;9651;49.138;8.900;2022-10-16T20:34:12;15.90;99.90
19037;DHT22;9651;49.138;8.900;2022-10-16T20:38:16;15.80;99.90
19037;DHT22;9651;49.138;8.900;2022-10-16T20:42:18;15.80;99.90
19037;DHT22;9651;49.138;8.900;2022-10-16T20:46:23;15.80;99.90
19037;DHT22;9651;49.138;8.900;2022-10-16T20:50:29;15.70;99.90
19037;DHT22;9651;49.138;8.900;2022-10-16T20:54:30;15.70;99.90
19037;DHT22;9651;49.138;8.900;2022-10-16T20:58:34;15.70;99.90
19037;DHT22;9651;49.138;8.900;2022-10-16T21:02:36;15.70;99.90
19037;DHT22;9651;49.138;8.900;2022-10-16T21:06:39;15.60;99.90
19037;DHT22;9651;49.138;8.900;2022-10-16T21:10:41;15.60;99.90
19037;DHT22;9651;49.138;8.900;2022-10-16T21:14:43;15.50;99.90
19037;DHT22;9651;49.138;8.900;2022-10-16T21:18:45;15.50;99.90
19037;DHT22;9651;49.138;8.900;2022-10-16T21:22:48;15.50;99.90
19037;DHT22;9651;49.138;8.900;2022-10-16T21:26:50;15.40;99.90
19037;DHT22;9651;49.138;8.900;2022-10-16T21:30:52;15.40;99.90
19037;DHT22;9651;49.138;8.900;2022-10-16T21:34:53;15.40;99.90
19037;DHT22;9651;49.138;8.900;2022-10-16T21:38:59;15.40;99.90
19037;DHT22;9651;49.138;8.900;2022-10-16T21:43:01;15.30;99.90
19037;DHT22;9651;49.138;8.900;2022-10-16T21:47:04;15.30;99.90
19037;DHT22;9651;49.138;8.900;2022-10-16T21:51:06;15.30;99.90
19037;DHT22;9651;49.138;8.900;2022-10-16T21:55:09;15.30;99.90
19037;DHT22;9651;49.138;8.900;2022-10-16T21:59:12;15.30;99.90
19037;DHT22;9651;49.138;8.900;2022-10-16T22:03:14;15.20;99.90
19037;DHT22;9651;49.138;8.900;2022-10-16T22:07:16;15.10;99.90
19037;DHT22;9651;49.138;8.900;2022-10-16T22:11:21;15.10;99.90
19037;DHT22;9651;49.138;8.900;2022-10-16T22:15:23;15.10;99.90
19037;DHT22;9651;49.138;8.900;2022-10-16T22:19:25;15.00;99.90
19037;DHT22;9651;49.138;8.900;2022-10-16T22:23:28;15.00;99.90
19037;DHT22;9651;49.138;8.900;2022-10-16T22:27:31;14.90;99.90
19037;DHT22;9651;49.138;8.900;2022-10-16T22:31:33;14.90;99.90
19037;DHT22;9651;49.138;8.900;2022-10-16T22:35:35;14.90;99.90
19037;DHT22;9651;49.138;8.900;2022-10-16T22:39:38;14.80;99.90
19037;DHT22;9651;49.138;8.900;2022-10-16T22:43:42;14.80;99.90
19037;DHT22;9651;49.138;8.900;2022-10-16T22:47:44;14.80;99.90
19037;DHT22;9651;49.138;8.900;2022-10-16T22:51:46;14.80;99.90
19037;DHT22;9651;49.138;8.900;2022-10-16T22:55:48;14.80;99.90
19037;DHT22;9651;49.138;8.900;2022-10-16T22:59:51;14.70;99.90
19037;DHT22;9651;49.138;8.900;2022-10-16T23:03:56;14.70;99.90
19037;DHT22;9651;49.138;8.900;2022-10-16T23:08:00;14.70;99.90
19037;DHT22;9651;49.138;8.900;2022-10-16T23:12:02;14.70;99.90
19037;DHT22;9651;49.138;8.900;2022-10-16T23:16:06;14.60;99.90
19037;DHT22;9651;49.138;8.900;2022-10-16T23:20:09;14.60;99.90
19037;DHT22;9651;49.138;8.900;2022-10-16T23:24:11;14.60;99.90
19037;DHT22;9651;49.138;8.900;2022-10-16T23:28:13;14.50;99.90
19037;DHT22;9651;49.138;8.900;2022-10-16T23:32:17;14.50;99.90
19037;DHT22;9651;49.138;8.900;2022-10-16T23:36:20;14.50;99.90
19037;DHT22;9651;49.138;8.900;2022-10-16T23:40:21;14.50;99.90
19037;DHT22;9651;49.138;8.900;2022-10-16T23:44:23;14.50;99.90
19037;DHT22;9651;49.138;8.900;2022-10-16T23:48:27;14.50;99.90
19037;DHT22;9651;49.138;8.900;2022-10-16T23:52:29;14.40;99.90
19037;DHT22;9651;49.138;8.900;2022-10-16T23:56:31;14.30;99.90
